Time;durP1;ratioP1;P1;durP2;ratioP2;P2;SDS_P1;SDS_P2;PMS_P1;PMS_P2;Temp;Humidity;BMP_temperature;BMP_pressure;BME280_temperature;BME280_humidity;BME280_pressure;Samples;Min_cycle;Max_cycle;Signal;HPM_P1;HPM_P2
2023/10/10 00:01:17;;;;;;;13.93;8.50;;;15.90;99.90;;;;;;6275667;22;20370;-90
2023/10/10 00:03:45;;;;;;;12.20;7.45;;;16.00;99.90;;;;;;6248119;22;20354;-91
2023/10/10 00:06:14;;;;;;;11.20;8.32;;;16.00;99.90;;;;;;6250454;22;20363;-91
2023/10/10 00:08:50;;;;;;;12.60;8.07;;;16.00;99.90;;;;;;6274033;22;20847;-91
2023/10/10 00:11:19;;;;;;;14.50;8.35;;;15.90;99.90;;;;;;6274779;22;20778;-91
2023/10/10 00:13:46;;;;;;;17.95;8.75;;;16.40;99.90;;;;;;6275385;22;20778;-91
2023/10/10 00:16:24;;;;;;;14.57;8.83;;;16.30;99.90;;;;;;6248104;22;20851;-90
2023/10/10 00:18:50;;;;;;;15.90;9.15;;;16.30;99.90;;;;;;6249798;22;20723;-92
2023/10/10 00:21:23;;;;;;;13.60;9.43;;;16.60;99.90;;;;;;6273447;22;20450;-91
2023/10/10 00:23:50;;;;;;;17.35;10.32;;;16.00;99.90;;;;;;6275257;22;20363;-92
2023/10/10 00:26:19;;;;;;;15.63;9.73;;;15.90;99.90;;;;;;6248617;22;20725;-91
2023/10/10 00:28:46;;;;;;;20.65;10.60;;;16.80;99.90;;;;;;6273949;22;20394;-91
2023/10/10 00:31:17;;;;;;;14.80;9.73;;;16.30;99.90;;;;;;6275303;22;20375;-91
2023/10/10 00:33:45;;;;;;;18.17;11.32;;;16.00;99.90;;;;;;6273309;22;20727;-91
2023/10/10 00:36:21;;;;;;;17.10;10.90;;;16.00;99.90;;;;;;6274861;22;20862;-90
2023/10/10 00:38:50;;;;;;;18.60;11.45;;;16.00;99.90;;;;;;6247578;22;20363;-91
2023/10/10 00:41:16;;;;;;;16.88;11.88;;;15.80;99.90;;;;;;6275022;22;20374;-91
2023/10/10 00:43:42;;;;;;;19.05;12.02;;;15.90;99.90;;;;;;6249053;22;21137;-91
2023/10/10 00:46:11;;;;;;;20.45;11.80;;;16.70;99.90;;;;;;6248414;22;20379;-92
2023/10/10 00:48:38;;;;;;;22.15;12.85;;;16.10;99.90;;;;;;6274759;22;20394;-89
2023/10/10 00:51:06;;;;;;;21.88;12.45;;;16.10;99.90;;;;;;6273238;22;20377;-91
2023/10/10 00:53:36;;;;;;;17.73;11.80;;;16.30;99.90;;;;;;6275019;22;20362;-91
2023/10/10 00:56:06;;;;;;;20.30;12.02;;;16.10;99.90;;;;;;6247709;22;20367;-90
2023/10/10 00:58:36;;;;;;;19.97;12.73;;;16.00;99.90;;;;;;6274834;22;20367;-91
2023/10/10 01:01:14;;;;;;;19.45;12.85;;;16.00;99.90;;;;;;6274044;22;20375;-90
2023/10/10 01:03:45;;;;;;;20.58;13.10;;;16.10;99.90;;;;;;6247806;22;20362;-91
2023/10/10 01:06:24;;;;;;;19.02;12.50;;;16.30;99.90;;;;;;6275394;22;20449;-91
2023/10/10 01:09:55;;;;;;;18.40;12.00;;;16.10;99.90;;;;;;6247314;22;20477;-90
2023/10/10 01:11:43;;;;;;;20.27;13.38;;;16.00;99.90;;;;;;6258098;22;20862;-91
2023/10/10 01:14:09;;;;;;;19.23;12.93;;;16.00;99.90;;;;;;6249465;22;20370;-91
2023/10/10 01:16:35;;;;;;;18.08;11.43;;;16.00;99.90;;;;;;6247790;22;20377;-91
2023/10/10 01:19:01;;;;;;;20.03;12.60;;;15.80;99.90;;;;;;6249322;22;20369;-90
2023/10/10 01:21:30;;;;;;;17.35;12.02;;;15.90;99.90;;;;;;6247323;22;20363;-91
2023/10/10 01:24:06;;;;;;;14.77;11.48;;;15.90;99.90;;;;;;6274517;22;20417;-91
2023/10/10 01:26:36;;;;;;;22.75;13.63;;;15.90;99.90;;;;;;6272958;22;20378;-91
2023/10/10 01:29:14;;;;;;;22.02;13.80;;;15.80;99.90;;;;;;6274404;22;20383;-89
2023/10/10 01:31:42;;;;;;;17.23;12.25;;;15.90;99.90;;;;;;6274724;22;20420;-90
2023/10/10 01:34:23;;;;;;;14.68;10.68;;;15.80;99.90;;;;;;6272478;22;20369;-91
2023/10/10 01:36:50;;;;;;;15.23;9.52;;;15.80;99.90;;;;;;6274561;22;20363;-91
2023/10/10 01:39:28;;;;;;;18.02;13.05;;;15.70;99.90;;;;;;6247261;22;20384;-91
2023/10/10 01:41:54;;;;;;;16.88;12.30;;;15.80;99.90;;;;;;6274588;22;20382;-90
2023/10/10 01:44:22;;;;;;;15.48;13.20;;;15.60;99.90;;;;;;6248805;22;20463;-91
2023/10/10 01:46:51;;;;;;;18.70;14.15;;;15.60;99.90;;;;;;6273425;22;20371;-91
2023/10/10 01:49:20;;;;;;;21.10;13.60;;;15.50;99.90;;;;;;6274233;22;20481;-91
2023/10/10 01:51:53;;;;;;;17.58;12.90;;;15.60;99.90;;;;;;6272259;22;20397;-90
2023/10/10 01:54:20;;;;;;;16.50;12.07;;;15.40;99.90;;;;;;6248807;22;20673;-91
2023/10/10 01:56:46;;;;;;;15.05;11.18;;;16.00;99.90;;;;;;6272529;22;20370;-90
2023/10/10 01:59:22;;;;;;;16.67;11.65;;;15.50;99.90;;;;;;6273973;22;20378;-89
2023/10/10 02:01:48;;;;;;;15.35;10.52;;;15.40;99.90;;;;;;6248359;22;20371;-90
2023/10/10 02:04:14;;;;;;;14.27;10.82;;;15.40;99.90;;;;;;6272538;22;20370;-91
2023/10/10 02:06:40;;;;;;;14.80;10.65;;;15.50;99.90;;;;;;6248225;22;20359;-90
2023/10/10 02:09:19;;;;;;;12.80;9.75;;;15.10;99.90;;;;;;6246719;22;20386;-90
2023/10/10 02:11:50;;;;;;;17.43;12.00;;;15.30;99.90;;;;;;6274385;22;20359;-91
2023/10/10 02:14:18;;;;;;;15.10;11.82;;;15.50;99.90;;;;;;6247345;22;20394;-90
2023/10/10 02:16:47;;;;;;;11.55;8.98;;;15.10;99.90;;;;;;6273270;22;20377;-90
2023/10/10 02:19:32;;;;;;;14.02;10.45;;;15.70;99.90;;;;;;6273789;22;20367;-90
2023/10/10 02:24:48;;;;;;;14.60;10.90;;;14.90;99.90;;;;;;6273677;22;20873;-91
2023/10/10 02:27:19;;;;;;;18.13;13.18;;;15.00;99.90;;;;;;6272398;22;20370;-89
2023/10/10 02:29:49;;;;;;;17.93;12.43;;;14.90;99.90;;;;;;6273155;22;20859;-91
2023/10/10 02:32:19;;;;;;;17.77;13.35;;;14.90;99.90;;;;;;6248486;22;20847;-90
2023/10/10 02:35:42;;;;;;;20.75;13.73;;;14.90;99.90;;;;;;6271847;22;20358;-89
2023/10/10 02:37:54;;;;;;;16.30;13.02;;;15.00;99.90;;;;;;6252214;22;20366;-90
2023/10/10 02:40:17;;;;;;;20.70;15.23;;;14.90;99.90;;;;;;6272252;22;20849;-89
2023/10/10 02:42:51;;;;;;;16.80;13.00;;;15.00;99.90;;;;;;6273792;22;20394;-91
2023/10/10 02:45:28;;;;;;;19.38;13.45;;;15.00;99.90;;;;;;6273661;22;20393;-90
2023/10/10 02:47:54;;;;;;;21.23;14.57;;;15.00;99.90;;;;;;6272263;22;20448;-91
2023/10/10 02:53:07;;;;;;;26.90;17.80;;;15.10;99.90;;;;;;6271803;22;20362;-89
2023/10/10 02:55:41;;;;;;;24.65;17.35;;;15.10;99.90;;;;;;6273379;22;20363;-91
2023/10/10 02:58:20;;;;;;;23.30;15.60;;;15.10;99.90;;;;;;6248356;22;20921;-89
2023/10/10 03:00:49;;;;;;;23.88;17.30;;;15.10;99.90;;;;;;6246464;22;20382;-91
2023/10/10 03:03:18;;;;;;;32.40;19.48;;;15.20;99.90;;;;;;6274053;22;20363;-91
2023/10/10 03:05:50;;;;;;;29.35;18.90;;;15.20;99.90;;;;;;6271603;22;20375;-92
2023/10/10 03:11:01;;;;;;;39.40;19.55;;;15.30;99.90;;;;;;6273534;22;20477;-90
2023/10/10 03:13:31;;;;;;;34.75;19.80;;;15.50;99.90;;;;;;6272283;22;20365;-90
2023/10/10 03:16:14;;;;;;;39.22;20.75;;;15.40;99.90;;;;;;6248285;22;20363;-91
2023/10/10 03:18:54;;;;;;;32.80;18.98;;;15.40;99.90;;;;;;6270525;22;20429;-89
2023/10/10 03:22:20;;;;;;;48.80;22.17;;;15.50;99.90;;;;;;6247823;22;21004;-92
2023/10/10 03:29:47;;;;;;;41.53;19.98;;;15.60;99.90;;;;;;6273785;22;20723;-90
2023/10/10 03:35:20;;;;;;;35.92;19.27;;;15.60;99.90;;;;;;6272470;22;20739;-91
2023/10/10 03:37:54;;;;;;;27.55;17.27;;;15.60;99.90;;;;;;6248173;22;20367;-89
2023/10/10 03:41:12;;;;;;;26.85;17.20;;;15.70;99.90;;;;;;6271714;22;20416;-90
2023/10/10 05:25:12;;;;;;;71.55;34.90;;;15.70;99.90;;;;;;6274186;22;20375;-92
2023/10/10 05:27:42;;;;;;;93.35;37.50;;;15.70;99.90;;;;;;6273331;22;20481;-92
2023/10/10 05:30:27;;;;;;;72.85;35.75;;;15.80;99.90;;;;;;6248641;22;20355;-91
2023/10/10 05:33:04;;;;;;;93.15;38.35;;;15.70;99.90;;;;;;6246795;22;20402;-91
2023/10/10 05:35:39;;;;;;;74.63;33.95;;;15.70;99.90;;;;;;6248972;22;20428;-91
2023/10/10 05:38:08;;;;;;;74.50;33.40;;;15.70;99.90;;;;;;6274641;22;20454;-91
2023/10/10 05:40:34;;;;;;;87.60;34.83;;;15.70;99.90;;;;;;6247901;22;20389;-92
2023/10/10 05:43:02;;;;;;;86.28;37.05;;;15.70;99.90;;;;;;6274774;22;20358;-91
2023/10/10 05:45:29;;;;;;;78.38;35.50;;;15.60;99.90;;;;;;6247339;22;20358;-91
2023/10/10 05:47:56;;;;;;;82.63;35.92;;;15.90;99.90;;;;;;6248185;22;20565;-92
2023/10/10 05:50:22;;;;;;;98.80;37.57;;;16.10;99.90;;;;;;6272909;22;20371;-92
2023/10/10 05:52:48;;;;;;;99.60;38.35;;;15.60;99.90;;;;;;6274755;22;20873;-92
2023/10/10 05:55:17;;;;;;;104.60;39.50;;;15.70;99.90;;;;;;6249057;22;20386;-93
2023/10/10 05:57:43;;;;;;;72.72;34.45;;;15.70;99.90;;;;;;6248538;22;20892;-93
2023/10/10 06:00:10;;;;;;;94.93;37.00;;;16.10;99.90;;;;;;6249266;22;20453;-92
2023/10/10 06:02:47;;;;;;;92.07;37.20;;;15.70;99.90;;;;;;6247802;22;20366;-92
2023/10/10 06:05:17;;;;;;;100.33;39.07;;;15.90;99.90;;;;;;6275477;22;20700;-93
2023/10/10 06:07:43;;;;;;;88.80;37.45;;;15.70;99.90;;;;;;6247543;22;20396;-92
2023/10/10 06:10:18;;;;;;;88.72;37.63;;;16.20;99.90;;;;;;6249626;22;20362;-92
2023/10/10 06:12:46;;;;;;;101.17;40.23;;;16.00;99.90;;;;;;6249133;22;20385;-92
2023/10/10 06:15:19;;;;;;;94.78;39.95;;;15.90;99.90;;;;;;6247619;22;20699;-91
2023/10/10 06:17:45;;;;;;;90.15;38.75;;;15.70;99.90;;;;;;6275118;22;20370;-92
2023/10/10 06:20:16;;;;;;;91.80;39.08;;;16.10;99.90;;;;;;6247372;22;20366;-92
2023/10/10 06:22:45;;;;;;;90.55;39.55;;;15.90;99.90;;;;;;6249059;22;20381;-92
2023/10/10 06:25:17;;;;;;;88.10;38.50;;;15.60;99.90;;;;;;6246966;22;20377;-91
2023/10/10 06:27:45;;;;;;;93.55;39.97;;;15.80;99.90;;;;;;6273943;22;20394;-92
2023/10/10 06:30:17;;;;;;;85.95;38.42;;;15.80;99.90;;;;;;6274361;22;20366;-92
2023/10/10 06:32:44;;;;;;;80.40;39.45;;;15.80;99.90;;;;;;6272234;22;20459;-90
2023/10/10 06:35:29;;;;;;;77.57;38.47;;;15.50;99.90;;;;;;6248394;22;20449;-92
2023/10/10 06:37:55;;;;;;;82.38;39.13;;;15.90;99.90;;;;;;6246216;22;20373;-90
2023/10/10 06:40:30;;;;;;;70.15;37.28;;;15.90;99.90;;;;;;6273486;22;20367;-90
2023/10/10 06:42:56;;;;;;;72.75;38.15;;;16.10;99.90;;;;;;6247956;22;20445;-89
2023/10/10 06:45:34;;;;;;;72.20;37.22;;;16.30;99.90;;;;;;6272494;22;20378;-91
2023/10/10 06:48:01;;;;;;;79.87;39.03;;;16.20;99.90;;;;;;6273729;22;20390;-91
2023/10/10 06:50:31;;;;;;;70.93;36.03;;;16.80;99.90;;;;;;6272065;22;20371;-91
2023/10/10 06:53:00;;;;;;;73.13;38.08;;;16.30;99.90;;;;;;6273704;22;20907;-92
2023/10/10 06:55:36;;;;;;;72.95;37.50;;;16.10;99.90;;;;;;6246822;22;20370;-89
2023/10/10 06:58:02;;;;;;;59.08;35.70;;;16.60;99.90;;;;;;6247875;22;20372;-91
2023/10/10 07:00:53;;;;;;;74.20;38.53;;;16.20;99.90;;;;;;6273650;22;20398;-91
2023/10/10 07:03:30;;;;;;;62.42;36.92;;;16.60;99.90;;;;;;6246333;22;20401;-92
2023/10/10 07:05:56;;;;;;;68.68;38.13;;;16.40;99.90;;;;;;6273803;22;20405;-90
2023/10/10 07:08:27;;;;;;;55.63;34.55;;;16.30;99.90;;;;;;6246182;22;20447;-91
2023/10/10 07:10:53;;;;;;;64.25;35.80;;;16.30;99.90;;;;;;6248479;22;20371;-91
2023/10/10 07:13:20;;;;;;;66.50;36.57;;;16.50;99.90;;;;;;6248070;22;20857;-91
2023/10/10 07:15:52;;;;;;;52.17;32.63;;;16.70;99.90;;;;;;6272400;22;20398;-92
2023/10/10 07:18:25;;;;;;;55.55;33.55;;;16.60;99.90;;;;;;6273965;22;20441;-90
2023/10/10 07:21:04;;;;;;;65.97;36.55;;;16.40;99.90;;;;;;6271956;22;20445;-91
2023/10/10 07:23:37;;;;;;;50.28;34.15;;;16.80;99.90;;;;;;6273383;22;20378;-91
2023/10/10 07:26:22;;;;;;;49.60;32.87;;;16.80;99.90;;;;;;6247399;22;20750;-90
2023/10/10 07:28:49;;;;;;;50.17;33.95;;;16.50;99.90;;;;;;6246265;22;20414;-91
2023/10/10 07:31:22;;;;;;;50.05;33.28;;;17.00;99.90;;;;;;6248821;22;20369;-90
2023/10/10 07:33:55;;;;;;;47.55;33.42;;;16.40;99.90;;;;;;6248341;22;20406;-91
2023/10/10 07:36:25;;;;;;;51.77;35.40;;;17.00;99.90;;;;;;6249880;22;20360;-90
2023/10/10 07:39:32;;;;;;;52.17;36.15;;;17.20;99.90;;;;;;6248893;22;20367;-91
2023/10/10 07:41:44;;;;;;;54.75;36.78;;;17.30;99.90;;;;;;6273573;22;20378;-92
2023/10/10 07:44:11;;;;;;;52.95;36.47;;;17.00;99.90;;;;;;6250340;22;20367;-91
2023/10/10 07:46:37;;;;;;;52.67;38.25;;;17.10;99.90;;;;;;6247926;22;20359;-93
2023/10/10 07:49:03;;;;;;;59.70;40.80;;;17.70;99.90;;;;;;6250507;22;20412;-93
2023/10/10 07:51:29;;;;;;;57.33;40.90;;;17.20;99.90;;;;;;6248279;22;20417;-91
2023/10/10 07:54:29;;;;;;;58.08;40.47;;;17.70;99.90;;;;;;6250328;22;20457;-91
2023/10/10 07:56:48;;;;;;;57.03;39.83;;;17.60;99.90;;;;;;6269628;22;20453;-92
2023/10/10 07:59:16;;;;;;;61.65;43.45;;;17.70;99.90;;;;;;6249714;22;20906;-90
2023/10/10 08:01:42;;;;;;;55.35;39.55;;;17.80;99.90;;;;;;6276186;22;20363;-91
2023/10/10 08:04:12;;;;;;;56.08;40.72;;;18.00;99.90;;;;;;6248560;22;20504;-92
2023/10/10 08:06:38;;;;;;;54.33;39.97;;;18.00;99.90;;;;;;6275702;22;20866;-91
2023/10/10 08:11:38;;;;;;;49.20;38.70;;;17.90;99.90;;;;;;6275618;22;20401;-91
2023/10/10 08:14:08;;;;;;;46.58;37.92;;;18.30;99.90;;;;;;6275594;22;20366;-90
2023/10/10 08:16:35;;;;;;;46.30;36.67;;;17.90;99.90;;;;;;6274017;22;20377;-91
2023/10/10 08:19:05;;;;;;;48.88;37.30;;;17.80;99.90;;;;;;6275385;22;20823;-91
2023/10/10 08:21:38;;;;;;;43.70;36.35;;;18.20;99.90;;;;;;6273376;22;20374;-91
2023/10/10 08:24:08;;;;;;;42.60;34.95;;;18.00;99.90;;;;;;6249729;22;20447;-92
2023/10/10 08:26:41;;;;;;;43.63;35.60;;;18.10;99.90;;;;;;6273669;22;20393;-91
2023/10/10 08:29:11;;;;;;;39.17;32.85;;;18.40;99.90;;;;;;6249001;22;20465;-93
2023/10/10 08:31:44;;;;;;;44.60;35.85;;;18.20;99.90;;;;;;6249894;22;20865;-91
2023/10/10 08:34:10;;;;;;;41.65;34.05;;;18.40;99.90;;;;;;6273073;22;20859;-91
2023/10/10 08:36:37;;;;;;;42.40;35.22;;;18.20;99.90;;;;;;6274774;22;20370;-91
2023/10/10 08:41:42;;;;;;;39.17;33.40;;;18.20;99.90;;;;;;6274814;22;20891;-90
2023/10/10 08:44:14;;;;;;;40.30;33.78;;;18.30;99.90;;;;;;6248737;22;20842;-91
2023/10/10 08:46:46;;;;;;;39.17;34.10;;;18.30;99.90;;;;;;6247739;22;20700;-91
2023/10/10 08:49:13;;;;;;;42.63;37.72;;;18.60;99.90;;;;;;6274841;22;20387;-91
2023/10/10 08:51:39;;;;;;;41.60;34.92;;;18.30;99.90;;;;;;6272843;22;20358;-91
2023/10/10 08:54:12;;;;;;;43.47;36.53;;;18.40;99.90;;;;;;6248862;22;20375;-90
2023/10/10 08:56:42;;;;;;;42.50;36.47;;;18.30;99.90;;;;;;6272681;22;20370;-90
2023/10/10 08:59:17;;;;;;;43.90;38.05;;;18.30;99.90;;;;;;6274328;22;20427;-91
2023/10/10 09:01:43;;;;;;;45.53;39.93;;;18.30;99.90;;;;;;6274337;22;20362;-91
2023/10/10 09:04:17;;;;;;;45.72;37.92;;;18.40;99.90;;;;;;6272388;22;20433;-91
2023/10/10 09:06:58;;;;;;;43.60;37.25;;;18.50;99.90;;;;;;6249094;22;20363;-92
2023/10/10 09:09:33;;;;;;;46.53;37.15;;;18.60;99.90;;;;;;6247789;22;20423;-91
2023/10/10 09:12:02;;;;;;;47.67;40.38;;;18.60;99.90;;;;;;6275974;22;20374;-93
2023/10/10 09:14:50;;;;;;;46.22;39.03;;;18.60;99.90;;;;;;6248695;22;20358;-92
2023/10/10 09:17:35;;;;;;;47.45;39.28;;;18.70;99.90;;;;;;6248715;22;20371;-91
2023/10/10 09:22:51;;;;;;;53.03;40.60;;;19.00;99.90;;;;;;6273622;22;20370;-90
2023/10/10 09:25:23;;;;;;;48.60;39.97;;;18.90;99.90;;;;;;6248446;22;20398;-91
2023/10/10 09:28:00;;;;;;;48.13;41.28;;;19.20;99.90;;;;;;6274885;22;20390;-92
2023/10/10 09:30:34;;;;;;;49.73;40.07;;;19.00;99.90;;;;;;6273451;22;20375;-92
2023/10/10 09:33:22;;;;;;;47.15;38.55;;;19.10;99.90;;;;;;6275323;22;20457;-90
2023/10/10 09:35:53;;;;;;;47.65;39.33;;;19.10;99.90;;;;;;6246263;22;20363;-90
2023/10/10 09:38:26;;;;;;;48.33;38.28;;;19.10;99.90;;;;;;6274910;22;20905;-91
2023/10/10 09:41:10;;;;;;;45.38;38.78;;;19.30;99.90;;;;;;6249256;22;20373;-90
2023/10/10 09:49:51;;;;;;;52.58;41.08;;;19.20;99.90;;;;;;6273431;22;20970;-91
2023/10/10 10:03:33;;;;;;;50.13;40.10;;;19.70;99.90;;;;;;6274437;22;20700;-92
2023/10/10 10:09:38;;;;;;;46.17;38.45;;;19.80;99.90;;;;;;6273381;22;20390;-91
2023/10/10 10:12:33;;;;;;;45.60;36.85;;;20.00;99.90;;;;;;6249539;22;20417;-90
2023/10/10 10:15:28;;;;;;;45.05;36.67;;;20.20;99.90;;;;;;6247325;22;20712;-90
2023/10/10 10:18:13;;;;;;;43.97;36.90;;;20.30;99.90;;;;;;6273149;22;20496;-91
2023/10/10 10:21:05;;;;;;;41.33;35.63;;;20.40;99.90;;;;;;6248343;22;20375;-92
2023/10/10 10:23:33;;;;;;;42.35;35.70;;;20.50;99.90;;;;;;6245873;22;20677;-90
2023/10/10 10:26:10;;;;;;;43.55;35.80;;;20.70;99.90;;;;;;6272633;22;20813;-90
2023/10/10 10:28:37;;;;;;;42.83;36.53;;;20.60;99.90;;;;;;6247922;22;20394;-91
2023/10/10 10:31:16;;;;;;;45.38;36.72;;;20.60;99.90;;;;;;6246114;22;20412;-91
2023/10/10 10:34:07;;;;;;;44.15;37.42;;;21.00;99.90;;;;;;6274272;22;20794;-92
2023/10/10 10:36:43;;;;;;;41.75;35.70;;;20.50;99.90;;;;;;6272590;22;20362;-90
2023/10/10 10:39:26;;;;;;;44.03;36.20;;;20.50;99.90;;;;;;6247011;22;20746;-91
2023/10/10 10:41:56;;;;;;;42.35;36.45;;;20.40;99.90;;;;;;6248171;22;20477;-90
2023/10/10 10:44:46;;;;;;;44.30;36.58;;;20.40;99.90;;;;;;6245701;22;20398;-90
2023/10/10 10:47:34;;;;;;;43.63;35.83;;;20.30;99.90;;;;;;6273239;22;20497;-91
2023/10/10 10:50:05;;;;;;;39.70;35.35;;;20.30;99.90;;;;;;6247187;22;20436;-91
2023/10/10 10:52:44;;;;;;;40.88;35.05;;;20.20;99.90;;;;;;6245388;22;20362;-89
2023/10/10 10:55:28;;;;;;;43.77;34.73;;;20.20;99.90;;;;;;6244025;22;20433;-89
2023/10/10 11:03:43;;;;;;;36.00;29.92;;;20.20;99.90;;;;;;6272512;22;20734;-90
2023/10/10 11:06:10;;;;;;;34.58;28.85;;;20.30;99.90;;;;;;6270176;22;20747;-89
2023/10/10 11:14:09;;;;;;;33.77;27.70;;;20.60;99.90;;;;;;6271306;22;20370;-88
2023/10/10 11:16:39;;;;;;;33.08;26.33;;;20.60;99.90;;;;;;6272686;22;20974;-90
2023/10/10 11:19:53;;;;;;;33.72;26.48;;;20.80;99.90;;;;;;6270864;22;20370;-90
2023/10/10 11:22:00;;;;;;;32.40;27.05;;;21.00;99.90;;;;;;6259531;22;20848;-90
2023/10/10 11:24:36;;;;;;;30.58;26.33;;;21.00;99.90;;;;;;6299230;22;20398;-89
2023/10/10 11:30:08;;;;;;;32.55;26.77;;;21.30;99.90;;;;;;6272146;22;20390;-88
2023/10/10 11:32:45;;;;;;;31.77;26.85;;;21.50;99.90;;;;;;6270166;22;20366;-89
2023/10/10 11:37:44;;;;;;;32.17;26.52;;;22.30;99.90;;;;;;6271026;22;20432;-89
2023/10/10 11:42:54;;;;;;;29.80;23.80;;;22.10;99.90;;;;;;6272355;22;20379;-90
2023/10/10 11:45:25;;;;;;;29.70;25.45;;;22.20;99.90;;;;;;6244798;22;20409;-88
2023/10/10 11:48:05;;;;;;;26.60;23.33;;;22.30;99.90;;;;;;6299639;22;20922;-90
2023/10/10 11:50:48;;;;;;;29.77;24.17;;;22.40;99.90;;;;;;6271921;22;20371;-90
2023/10/10 11:53:19;;;;;;;26.02;23.15;;;22.50;99.90;;;;;;6245205;22;20379;-91
2023/10/10 11:55:45;;;;;;;28.97;24.47;;;23.00;99.90;;;;;;6272587;22;20385;-89
2023/10/10 11:58:16;;;;;;;27.92;24.10;;;22.60;99.90;;;;;;6270332;22;20367;-89
2023/10/10 12:00:59;;;;;;;28.70;25.30;;;22.60;99.90;;;;;;6272490;22;20394;-89
2023/10/10 12:03:41;;;;;;;30.33;25.05;;;22.60;99.90;;;;;;6271337;22;20768;-90
2023/10/10 12:06:16;;;;;;;28.02;24.88;;;22.60;99.90;;;;;;6270524;22;20809;-90
2023/10/10 12:08:48;;;;;;;29.60;25.35;;;22.50;99.90;;;;;;6246876;22;20434;-90
2023/10/10 12:11:20;;;;;;;30.77;25.67;;;22.70;99.90;;;;;;6270411;22;20367;-89
2023/10/10 12:13:50;;;;;;;29.93;24.47;;;22.40;99.90;;;;;;6246927;22;20371;-90
2023/10/10 12:16:24;;;;;;;29.83;26.58;;;22.40;99.90;;;;;;6271022;22;20468;-90
2023/10/10 12:18:52;;;;;;;29.50;24.05;;;22.40;99.90;;;;;;6273279;22;20371;-89
2023/10/10 12:21:21;;;;;;;29.75;25.52;;;22.30;99.90;;;;;;6274125;22;20371;-90
2023/10/10 12:23:52;;;;;;;30.13;26.17;;;22.30;99.90;;;;;;6272699;22;20370;-91
2023/10/10 12:26:18;;;;;;;33.40;26.27;;;22.20;99.90;;;;;;6248602;22;20783;-89
2023/10/10 12:28:47;;;;;;;29.92;25.80;;;22.20;99.90;;;;;;6246537;22;20503;-90
2023/10/10 12:31:18;;;;;;;34.28;27.67;;;22.00;99.90;;;;;;6273835;22;20389;-90
2023/10/10 12:33:47;;;;;;;30.02;25.80;;;22.00;99.90;;;;;;6247307;22;20381;-88
2023/10/10 12:36:14;;;;;;;30.17;26.48;;;21.90;99.90;;;;;;6273537;22;20878;-90
2023/10/10 12:38:40;;;;;;;31.52;26.02;;;22.00;99.90;;;;;;6248916;22;20665;-91
2023/10/10 12:41:06;;;;;;;29.93;26.30;;;21.80;99.90;;;;;;6272493;22;20394;-90
2023/10/10 12:43:32;;;;;;;32.63;26.73;;;21.50;99.90;;;;;;6248503;22;20377;-90
2023/10/10 12:46:01;;;;;;;30.50;25.63;;;21.70;99.90;;;;;;6272142;22;20375;-90
2023/10/10 12:48:28;;;;;;;32.65;25.60;;;21.70;99.90;;;;;;6274451;22;20833;-90
2023/10/10 12:50:53;;;;;;;35.20;27.67;;;21.70;99.90;;;;;;6274033;22;20866;-94
2023/10/10 12:53:20;;;;;;;32.42;27.13;;;21.80;99.90;;;;;;6249331;22;20378;-93
2023/10/10 12:55:51;;;;;;;33.15;27.58;;;22.20;99.90;;;;;;6249329;22;20373;-92
2023/10/10 12:58:24;;;;;;;30.60;26.35;;;21.90;99.90;;;;;;6247285;22;20560;-87
2023/10/10 13:00:53;;;;;;;30.05;26.52;;;22.20;99.90;;;;;;6275087;22;20711;-90
2023/10/10 13:03:27;;;;;;;32.35;28.63;;;22.10;99.90;;;;;;6247346;22;20404;-90
2023/10/10 13:05:58;;;;;;;32.97;29.10;;;21.70;99.90;;;;;;6249312;22;20456;-92
2023/10/10 13:08:25;;;;;;;37.90;29.15;;;21.70;99.90;;;;;;6247949;22;20402;-91
2023/10/10 13:10:54;;;;;;;35.00;29.95;;;21.80;99.90;;;;;;6248054;22;20363;-93
2023/10/10 13:13:26;;;;;;;35.90;29.90;;;22.20;99.90;;;;;;6249402;22;20382;-91
2023/10/10 13:16:22;;;;;;;36.45;30.13;;;21.50;99.90;;;;;;6247483;22;20367;-90
2023/10/10 13:19:13;;;;;;;35.60;30.10;;;21.80;99.90;;;;;;6249532;22;20371;-91
2023/10/10 13:21:41;;;;;;;34.47;28.85;;;21.40;99.90;;;;;;6265907;22;20451;-89
2023/10/10 13:24:11;;;;;;;34.40;28.43;;;21.40;99.90;;;;;;6272034;22;20390;-89
2023/10/10 13:26:38;;;;;;;33.58;28.33;;;21.50;99.90;;;;;;6248164;22;20461;-88
2023/10/10 13:29:05;;;;;;;35.95;29.45;;;21.70;99.90;;;;;;6270727;22;20476;-91
2023/10/10 13:31:31;;;;;;;32.85;28.67;;;21.90;99.90;;;;;;6274334;22;20370;-90
2023/10/10 13:33:57;;;;;;;35.17;30.33;;;21.80;99.90;;;;;;6271386;22;20803;-89
2023/10/10 13:36:23;;;;;;;37.17;30.25;;;22.20;99.90;;;;;;6247557;22;20407;-89
2023/10/10 13:38:51;;;;;;;32.95;29.10;;;22.00;99.90;;;;;;6247596;22;20362;-89
2023/10/10 13:41:18;;;;;;;35.10;30.10;;;21.90;99.90;;;;;;6272186;22;20370;-89
2023/10/10 13:43:46;;;;;;;36.30;30.87;;;21.80;99.90;;;;;;6273282;22;20409;-90
2023/10/10 13:46:13;;;;;;;36.97;31.85;;;21.80;99.90;;;;;;6271713;22;20358;-90
2023/10/10 13:48:39;;;;;;;38.13;32.83;;;22.00;99.90;;;;;;6273020;22;20386;-90
2023/10/10 13:51:07;;;;;;;40.28;34.08;;;22.00;99.90;;;;;;6271130;22;20902;-90
2023/10/10 13:53:34;;;;;;;39.20;34.28;;;21.60;99.90;;;;;;6272826;22;20371;-90
2023/10/10 13:56:05;;;;;;;38.45;34.22;;;21.80;99.90;;;;;;6272319;22;20366;-89
2023/10/10 13:58:32;;;;;;;42.50;36.63;;;21.50;99.90;;;;;;6245415;22;20375;-89
2023/10/10 14:03:46;;;;;;;45.10;37.58;;;21.80;99.90;;;;;;6270564;22;20366;-89
2023/10/10 14:06:13;;;;;;;41.17;36.53;;;21.40;99.90;;;;;;6272748;22;20762;-88
2023/10/10 14:08:44;;;;;;;45.72;37.88;;;22.00;99.90;;;;;;6270724;22;20386;-87
2023/10/10 14:11:12;;;;;;;42.50;36.80;;;21.80;99.90;;;;;;6272352;22;20392;-91
2023/10/10 14:13:38;;;;;;;43.00;37.63;;;21.50;99.90;;;;;;6272792;22;20461;-87
2023/10/10 14:16:05;;;;;;;43.50;36.63;;;21.50;99.90;;;;;;6271417;22;20398;-88
2023/10/10 14:18:32;;;;;;;40.22;35.83;;;21.40;99.90;;;;;;6272647;22;20436;-89
2023/10/10 14:21:07;;;;;;;43.65;37.35;;;21.60;99.90;;;;;;6270870;22;20370;-89
2023/10/10 14:23:38;;;;;;;42.72;36.25;;;21.40;99.90;;;;;;6272978;22;20366;-92
2023/10/10 14:26:16;;;;;;;46.50;37.70;;;21.40;99.90;;;;;;6270918;22;20367;-90
2023/10/10 14:28:50;;;;;;;42.83;37.00;;;21.20;99.90;;;;;;6271832;22;20394;-89
2023/10/10 14:31:21;;;;;;;45.42;37.85;;;21.30;99.90;;;;;;6247208;22;20456;-88
2023/10/10 14:33:47;;;;;;;44.55;36.92;;;21.50;99.90;;;;;;6245388;22;20367;-89
2023/10/10 14:36:13;;;;;;;40.92;34.22;;;21.50;99.90;;;;;;6246798;22;20371;-89
2023/10/10 14:38:44;;;;;;;41.22;35.65;;;21.30;99.90;;;;;;6270661;22;20428;-90
2023/10/10 14:41:17;;;;;;;42.03;35.10;;;21.80;99.90;;;;;;6272540;22;20431;-90
2023/10/10 14:43:49;;;;;;;40.90;34.78;;;21.40;99.90;;;;;;6246471;22;20835;-89
2023/10/10 14:46:21;;;;;;;41.95;34.15;;;21.50;99.90;;;;;;6270916;22;20371;-89
2023/10/10 14:49:06;;;;;;;40.60;34.87;;;21.40;99.90;;;;;;6272858;22;20888;-89
2023/10/10 14:51:34;;;;;;;39.97;35.23;;;21.10;99.90;;;;;;6269204;22;20387;-90
2023/10/10 14:54:06;;;;;;;40.38;35.92;;;21.20;99.90;;;;;;6247093;22;20374;-88
2023/10/10 14:56:51;;;;;;;41.97;35.10;;;21.10;99.90;;;;;;6271188;22;20688;-88
2023/10/10 14:59:25;;;;;;;40.38;34.15;;;21.00;99.90;;;;;;6270593;22;20374;-90
2023/10/10 15:01:52;;;;;;;40.30;34.17;;;21.00;99.90;;;;;;6272651;22;20375;-88
2023/10/10 15:04:20;;;;;;;41.20;34.97;;;21.40;99.90;;;;;;6269423;22;20363;-87
2023/10/10 15:06:48;;;;;;;38.10;32.75;;;21.20;99.90;;;;;;6246637;22;20446;-91
2023/10/10 15:09:19;;;;;;;41.25;34.47;;;21.60;99.90;;;;;;6270647;22;20459;-88
2023/10/10 15:11:46;;;;;;;39.80;33.25;;;20.90;99.90;;;;;;6246478;22;20379;-89
2023/10/10 15:14:12;;;;;;;40.43;33.87;;;20.60;99.90;;;;;;6272854;22;20908;-91
2023/10/10 15:16:40;;;;;;;40.45;34.08;;;20.40;99.90;;;;;;6246096;22;20859;-89
2023/10/10 15:19:07;;;;;;;38.63;33.15;;;20.50;99.90;;;;;;6272092;22;20436;-89
2023/10/10 15:21:37;;;;;;;38.72;33.75;;;21.30;99.90;;;;;;6270862;22;20374;-89
2023/10/10 15:24:04;;;;;;;39.95;34.53;;;20.40;99.90;;;;;;6273360;22;20863;-90
2023/10/10 15:26:32;;;;;;;41.60;34.60;;;20.40;99.90;;;;;;6244738;22;20378;-89
2023/10/10 15:28:59;;;;;;;40.85;35.55;;;20.70;99.90;;;;;;6272189;22;20925;-91
2023/10/10 15:31:27;;;;;;;41.73;34.60;;;20.30;99.90;;;;;;6246866;22;20367;-90
2023/10/10 15:33:54;;;;;;;39.22;33.20;;;20.30;99.90;;;;;;6271948;22;20427;-91
2023/10/10 15:36:20;;;;;;;43.33;34.85;;;20.40;99.90;;;;;;6246964;22;20739;-90
2023/10/10 15:38:46;;;;;;;41.70;33.85;;;20.20;99.90;;;;;;6245375;22;20374;-89
2023/10/10 15:41:21;;;;;;;38.87;33.33;;;20.60;99.90;;;;;;6246793;22;20847;-92